sensor_id;sensor_type;location;lat;lon;timestamp;temperature;humidity
17399;DHT22;8817;48.170;8.592;2022-11-21T00:01:19;9.20;54.40
17399;DHT22;8817;48.170;8.592;2022-11-21T00:03:46;9.10;54.30
17399;DHT22;8817;48.170;8.592;2022-11-21T00:06:13;9.10;54.40
17399;DHT22;8817;48.170;8.592;2022-11-21T00:08:40;9.10;54.40
17399;DHT22;8817;48.170;8.592;2022-11-21T00:11:07;9.10;54.50
17399;DHT22;8817;48.170;8.592;2022-11-21T00:13:34;9.10;54.50
17399;DHT22;8817;48.170;8.592;2022-11-21T00:16:07;9.10;54.50
17399;DHT22;8817;48.170;8.592;2022-11-21T00:18:35;9.00;54.50
17399;DHT22;8817;48.170;8.592;2022-11-21T00:21:05;9.00;54.40
17399;DHT22;8817;48.170;8.592;2022-11-21T00:23:32;9.00;54.50
17399;DHT22;8817;48.170;8.592;2022-11-21T00:26:03;9.00;54.60
17399;DHT22;8817;48.170;8.592;2022-11-21T00:28:30;8.90;54.60
17399;DHT22;8817;48.170;8.592;2022-11-21T00:30:57;8.90;54.60
17399;DHT22;8817;48.170;8.592;2022-11-21T00:33:25;8.90;54.60
17399;DHT22;8817;48.170;8.592;2022-11-21T00:35:52;8.90;54.60
17399;DHT22;8817;48.170;8.592;2022-11-21T00:38:19;8.90;54.70
17399;DHT22;8817;48.170;8.592;2022-11-21T00:40:46;8.90;54.70
17399;DHT22;8817;48.170;8.592;2022-11-21T00:43:12;8.90;54.70
17399;DHT22;8817;48.170;8.592;2022-11-21T00:45:39;9.00;54.80
17399;DHT22;8817;48.170;8.592;2022-11-21T00:48:06;9.00;54.80
17399;DHT22;8817;48.170;8.592;2022-11-21T00:50:34;9.00;54.80
17399;DHT22;8817;48.170;8.592;2022-11-21T00:53:01;9.00;54.80
17399;DHT22;8817;48.170;8.592;2022-11-21T00:55:28;9.00;54.80
17399;DHT22;8817;48.170;8.592;2022-11-21T00:57:58;9.10;54.80
17399;DHT22;8817;48.170;8.592;2022-11-21T01:00:25;9.10;54.80
17399;DHT22;8817;48.170;8.592;2022-11-21T01:02:52;9.10;54.80
17399;DHT22;8817;48.170;8.592;2022-11-21T01:05:18;9.10;54.80
17399;DHT22;8817;48.170;8.592;2022-11-21T01:07:48;9.10;54.80
17399;DHT22;8817;48.170;8.592;2022-11-21T01:10:17;9.10;54.80
17399;DHT22;8817;48.170;8.592;2022-11-21T01:12:44;9.10;54.80
17399;DHT22;8817;48.170;8.592;2022-11-21T01:15:11;9.10;54.80
17399;DHT22;8817;48.170;8.592;2022-11-21T01:17:38;9.10;54.80
17399;DHT22;8817;48.170;8.592;2022-11-21T01:20:06;9.10;54.80
17399;DHT22;8817;48.170;8.592;2022-11-21T01:22:33;9.10;54.80
17399;DHT22;8817;48.170;8.592;2022-11-21T01:25:01;9.20;54.90
17399;DHT22;8817;48.170;8.592;2022-11-21T01:27:28;9.20;54.90
17399;DHT22;8817;48.170;8.592;2022-11-21T01:29:55;9.20;54.90
17399;DHT22;8817;48.170;8.592;2022-11-21T01:32:21;9.20;54.90
17399;DHT22;8817;48.170;8.592;2022-11-21T01:34:48;9.20;54.80
17399;DHT22;8817;48.170;8.592;2022-11-21T01:37:15;9.20;54.80
17399;DHT22;8817;48.170;8.592;2022-11-21T01:39:42;9.30;54.80
17399;DHT22;8817;48.170;8.592;2022-11-21T01:42:11;9.30;54.80
17399;DHT22;8817;48.170;8.592;2022-11-21T01:44:47;9.30;54.80
17399;DHT22;8817;48.170;8.592;2022-11-21T01:47:14;9.30;54.80
17399;DHT22;8817;48.170;8.592;2022-11-21T01:49:42;9.30;54.70
17399;DHT22;8817;48.170;8.592;2022-11-21T01:52:12;9.30;54.70
17399;DHT22;8817;48.170;8.592;2022-11-21T01:54:43;9.30;54.70
17399;DHT22;8817;48.170;8.592;2022-11-21T01:57:16;9.30;54.60
17399;DHT22;8817;48.170;8.592;2022-11-21T01:59:48;9.30;54.60
17399;DHT22;8817;48.170;8.592;2022-11-21T02:02:19;9.30;54.60
17399;DHT22;8817;48.170;8.592;2022-11-21T02:04:47;9.30;54.60
17399;DHT22;8817;48.170;8.592;2022-11-21T02:07:17;9.30;54.60
17399;DHT22;8817;48.170;8.592;2022-11-21T02:09:49;9.20;54.50
17399;DHT22;8817;48.170;8.592;2022-11-21T02:12:22;9.20;54.50
17399;DHT22;8817;48.170;8.592;2022-11-21T02:14:51;9.20;54.50
17399;DHT22;8817;48.170;8.592;2022-11-21T02:17:18;9.20;54.40
17399;DHT22;8817;48.170;8.592;2022-11-21T02:19:52;9.20;54.40
17399;DHT22;8817;48.170;8.592;2022-11-21T02:22:27;9.10;54.40
17399;DHT22;8817;48.170;8.592;2022-11-21T02:25:03;9.10;54.40
17399;DHT22;8817;48.170;8.592;2022-11-21T02:27:30;9.00;54.40
17399;DHT22;8817;48.170;8.592;2022-11-21T02:29:57;9.00;54.40
17399;DHT22;8817;48.170;8.592;2022-11-21T02:32:30;9.00;54.50
17399;DHT22;8817;48.170;8.592;2022-11-21T02:34:58;9.00;54.50
17399;DHT22;8817;48.170;8.592;2022-11-21T02:37:24;9.00;54.60
17399;DHT22;8817;48.170;8.592;2022-11-21T02:39:52;9.00;54.60
17399;DHT22;8817;48.170;8.592;2022-11-21T02:42:26;9.00;54.60
17399;DHT22;8817;48.170;8.592;2022-11-21T02:45:02;9.00;54.70
17399;DHT22;8817;48.170;8.592;2022-11-21T02:47:34;9.00;54.80
17399;DHT22;8817;48.170;8.592;2022-11-21T02:50:08;9.00;54.80
17399;DHT22;8817;48.170;8.592;2022-11-21T02:52:36;9.00;54.90
17399;DHT22;8817;48.170;8.592;2022-11-21T02:55:03;9.10;54.90
17399;DHT22;8817;48.170;8.592;2022-11-21T02:57:32;9.10;54.90
17399;DHT22;8817;48.170;8.592;2022-11-21T02:59:59;9.10;54.90
17399;DHT22;8817;48.170;8.592;2022-11-21T03:02:26;9.20;55.00
17399;DHT22;8817;48.170;8.592;2022-11-21T03:04:53;9.20;54.90
17399;DHT22;8817;48.170;8.592;2022-11-21T03:07:20;9.20;54.90
17399;DHT22;8817;48.170;8.592;2022-11-21T03:09:46;9.30;54.90
17399;DHT22;8817;48.170;8.592;2022-11-21T03:12:13;9.30;54.90
17399;DHT22;8817;48.170;8.592;2022-11-21T03:14:42;9.30;54.90
17399;DHT22;8817;48.170;8.592;2022-11-21T03:17:08;9.30;54.90
17399;DHT22;8817;48.170;8.592;2022-11-21T03:19:35;9.30;54.90
17399;DHT22;8817;48.170;8.592;2022-11-21T03:22:02;9.30;54.90
17399;DHT22;8817;48.170;8.592;2022-11-21T03:24:29;9.40;54.90
17399;DHT22;8817;48.170;8.592;2022-11-21T03:26:56;9.30;54.90
17399;DHT22;8817;48.170;8.592;2022-11-21T03:29:23;9.40;54.90
17399;DHT22;8817;48.170;8.592;2022-11-21T03:31:51;9.40;55.00
17399;DHT22;8817;48.170;8.592;2022-11-21T03:34:18;9.40;55.00
17399;DHT22;8817;48.170;8.592;2022-11-21T03:36:45;9.40;54.90
17399;DHT22;8817;48.170;8.592;2022-11-21T03:39:12;9.50;55.00
17399;DHT22;8817;48.170;8.592;2022-11-21T03:41:39;9.40;54.90
17399;DHT22;8817;48.170;8.592;2022-11-21T03:44:07;9.50;55.00
17399;DHT22;8817;48.170;8.592;2022-11-21T03:46:36;9.50;55.00
17399;DHT22;8817;48.170;8.592;2022-11-21T03:49:05;9.50;55.00
17399;DHT22;8817;48.170;8.592;2022-11-21T03:51:32;9.50;55.00
17399;DHT22;8817;48.170;8.592;2022-11-21T03:53:59;9.50;55.00
17399;DHT22;8817;48.170;8.592;2022-11-21T03:56:26;9.60;55.00
17399;DHT22;8817;48.170;8.592;2022-11-21T03:58:53;9.60;55.00
17399;DHT22;8817;48.170;8.592;2022-11-21T04:01:21;9.60;55.00
17399;DHT22;8817;48.170;8.592;2022-11-21T04:03:48;9.60;55.00
17399;DHT22;8817;48.170;8.592;2022-11-21T04:06:19;9.60;54.90
17399;DHT22;8817;48.170;8.592;2022-11-21T04:08:46;9.60;55.00
17399;DHT22;8817;48.170;8.592;2022-11-21T04:11:13;9.60;54.90
17399;DHT22;8817;48.170;8.592;2022-11-21T04:13:40;9.60;54.90
17399;DHT22;8817;48.170;8.592;2022-11-21T04:16:07;9.60;54.90
17399;DHT22;8817;48.170;8.592;2022-11-21T04:18:35;9.60;54.80
17399;DHT22;8817;48.170;8.592;2022-11-21T04:21:03;9.60;54.70
17399;DHT22;8817;48.170;8.592;2022-11-21T04:23:32;9.60;54.70
17399;DHT22;8817;48.170;8.592;2022-11-21T04:25:59;9.50;54.60
17399;DHT22;8817;48.170;8.592;2022-11-21T04:28:26;9.50;54.60
17399;DHT22;8817;48.170;8.592;2022-11-21T04:30:53;9.40;54.60
17399;DHT22;8817;48.170;8.592;2022-11-21T04:33:20;9.40;54.60
17399;DHT22;8817;48.170;8.592;2022-11-21T04:35:47;9.40;54.60
17399;DHT22;8817;48.170;8.592;2022-11-21T04:38:14;9.40;55.10
17399;DHT22;8817;48.170;8.592;2022-11-21T04:40:43;9.40;54.60
17399;DHT22;8817;48.170;8.592;2022-11-21T04:43:10;9.30;55.10
17399;DHT22;8817;48.170;8.592;2022-11-21T04:45:37;9.30;54.60
17399;DHT22;8817;48.170;8.592;2022-11-21T04:48:04;9.20;54.60
17399;DHT22;8817;48.170;8.592;2022-11-21T04:50:31;9.20;54.60
17399;DHT22;8817;48.170;8.592;2022-11-21T04:52:58;9.20;54.60
17399;DHT22;8817;48.170;8.592;2022-11-21T04:55:28;9.20;54.60
17399;DHT22;8817;48.170;8.592;2022-11-21T04:57:57;9.20;54.70
17399;DHT22;8817;48.170;8.592;2022-11-21T05:00:24;9.10;54.70
17399;DHT22;8817;48.170;8.592;2022-11-21T05:02:51;9.10;54.70
17399;DHT22;8817;48.170;8.592;2022-11-21T05:05:18;9.10;54.70
17399;DHT22;8817;48.170;8.592;2022-11-21T05:07:45;9.10;54.80
17399;DHT22;8817;48.170;8.592;2022-11-21T05:10:12;9.10;54.90
17399;DHT22;8817;48.170;8.592;2022-11-21T05:12:38;9.10;54.90
17399;DHT22;8817;48.170;8.592;2022-11-21T05:15:24;9.00;54.90
17399;DHT22;8817;48.170;8.592;2022-11-21T05:17:51;9.00;54.90
17399;DHT22;8817;48.170;8.592;2022-11-21T05:20:18;9.00;55.00
17399;DHT22;8817;48.170;8.592;2022-11-21T05:22:50;9.00;55.00
17399;DHT22;8817;48.170;8.592;2022-11-21T05:25:17;9.00;55.00
17399;DHT22;8817;48.170;8.592;2022-11-21T05:27:44;9.00;55.00
17399;DHT22;8817;48.170;8.592;2022-11-21T05:30:11;9.00;55.10
17399;DHT22;8817;48.170;8.592;2022-11-21T05:32:39;9.00;55.10
17399;DHT22;8817;48.170;8.592;2022-11-21T05:35:07;9.00;55.10
17399;DHT22;8817;48.170;8.592;2022-11-21T05:37:34;9.00;55.10
17399;DHT22;8817;48.170;8.592;2022-11-21T05:40:01;9.00;55.10
17399;DHT22;8817;48.170;8.592;2022-11-21T05:42:27;9.00;55.10
17399;DHT22;8817;48.170;8.592;2022-11-21T05:45:12;9.10;55.20
17399;DHT22;8817;48.170;8.592;2022-11-21T05:47:41;9.10;55.10
17399;DHT22;8817;48.170;8.592;2022-11-21T05:50:08;9.10;55.10
17399;DHT22;8817;48.170;8.592;2022-11-21T05:52:35;9.10;55.10
17399;DHT22;8817;48.170;8.592;2022-11-21T05:55:02;9.10;55.00
17399;DHT22;8817;48.170;8.592;2022-11-21T05:57:30;9.10;55.00
17399;DHT22;8817;48.170;8.592;2022-11-21T05:59:56;9.10;55.00
17399;DHT22;8817;48.170;8.592;2022-11-21T06:02:23;9.10;55.00
17399;DHT22;8817;48.170;8.592;2022-11-21T06:05:09;9.10;55.50
17399;DHT22;8817;48.170;8.592;2022-11-21T06:07:36;9.10;54.90
17399;DHT22;8817;48.170;8.592;2022-11-21T06:10:03;9.10;55.50
17399;DHT22;8817;48.170;8.592;2022-11-21T06:12:30;9.10;54.90
17399;DHT22;8817;48.170;8.592;2022-11-21T06:14:57;9.10;54.90
17399;DHT22;8817;48.170;8.592;2022-11-21T06:17:24;9.10;55.00
17399;DHT22;8817;48.170;8.592;2022-11-21T06:19:51;9.10;55.00
17399;DHT22;8817;48.170;8.592;2022-11-21T06:22:19;9.10;55.00
17399;DHT22;8817;48.170;8.592;2022-11-21T06:24:46;9.10;55.00
17399;DHT22;8817;48.170;8.592;2022-11-21T06:27:13;9.10;55.00
17399;DHT22;8817;48.170;8.592;2022-11-21T06:29:40;9.10;55.10
17399;DHT22;8817;48.170;8.592;2022-11-21T06:32:07;9.20;55.20
17399;DHT22;8817;48.170;8.592;2022-11-21T06:34:34;9.20;55.10
17399;DHT22;8817;48.170;8.592;2022-11-21T06:37:01;9.20;55.10
17399;DHT22;8817;48.170;8.592;2022-11-21T06:39:29;9.20;55.10
17399;DHT22;8817;48.170;8.592;2022-11-21T06:41:56;9.20;55.00
17399;DHT22;8817;48.170;8.592;2022-11-21T06:44:23;9.20;55.00
17399;DHT22;8817;48.170;8.592;2022-11-21T06:46:50;9.20;55.00
17399;DHT22;8817;48.170;8.592;2022-11-21T06:49:17;9.30;55.00
17399;DHT22;8817;48.170;8.592;2022-11-21T06:51:44;9.30;55.00
17399;DHT22;8817;48.170;8.592;2022-11-21T06:54:11;9.30;55.00
17399;DHT22;8817;48.170;8.592;2022-11-21T06:56:39;9.30;55.00
17399;DHT22;8817;48.170;8.592;2022-11-21T06:59:06;9.30;55.00
17399;DHT22;8817;48.170;8.592;2022-11-21T07:01:33;9.30;55.00
17399;DHT22;8817;48.170;8.592;2022-11-21T07:04:00;9.30;55.00
17399;DHT22;8817;48.170;8.592;2022-11-21T07:06:26;9.30;54.90
17399;DHT22;8817;48.170;8.592;2022-11-21T07:08:53;9.30;54.90
17399;DHT22;8817;48.170;8.592;2022-11-21T07:11:20;9.30;54.90
17399;DHT22;8817;48.170;8.592;2022-11-21T07:13:49;9.30;54.90
17399;DHT22;8817;48.170;8.592;2022-11-21T07:16:15;9.30;54.90
17399;DHT22;8817;48.170;8.592;2022-11-21T07:18:41;9.30;54.90
17399;DHT22;8817;48.170;8.592;2022-11-21T07:21:10;9.30;54.90
17399;DHT22;8817;48.170;8.592;2022-11-21T07:23:37;9.30;54.90
17399;DHT22;8817;48.170;8.592;2022-11-21T07:26:05;9.20;54.80
17399;DHT22;8817;48.170;8.592;2022-11-21T07:28:33;9.20;54.80
17399;DHT22;8817;48.170;8.592;2022-11-21T07:31:02;9.20;54.80
17399;DHT22;8817;48.170;8.592;2022-11-21T07:33:29;9.20;54.80
17399;DHT22;8817;48.170;8.592;2022-11-21T07:35:56;9.20;54.80
17399;DHT22;8817;48.170;8.592;2022-11-21T07:38:23;9.20;54.90
17399;DHT22;8817;48.170;8.592;2022-11-21T07:40:51;9.20;54.90
17399;DHT22;8817;48.170;8.592;2022-11-21T07:43:18;9.20;54.90
17399;DHT22;8817;48.170;8.592;2022-11-21T07:45:45;9.20;54.80
17399;DHT22;8817;48.170;8.592;2022-11-21T07:48:13;9.10;54.80
17399;DHT22;8817;48.170;8.592;2022-11-21T07:50:40;9.20;54.90
17399;DHT22;8817;48.170;8.592;2022-11-21T07:53:08;9.20;55.00
17399;DHT22;8817;48.170;8.592;2022-11-21T07:55:36;9.20;55.00
17399;DHT22;8817;48.170;8.592;2022-11-21T07:58:04;9.20;55.00
17399;DHT22;8817;48.170;8.592;2022-11-21T08:00:33;9.20;55.10
17399;DHT22;8817;48.170;8.592;2022-11-21T08:03:00;9.20;55.10
17399;DHT22;8817;48.170;8.592;2022-11-21T08:05:28;9.20;55.10
17399;DHT22;8817;48.170;8.592;2022-11-21T08:07:55;9.20;55.10
17399;DHT22;8817;48.170;8.592;2022-11-21T08:10:22;9.30;55.20
17399;DHT22;8817;48.170;8.592;2022-11-21T08:12:49;9.30;55.20
17399;DHT22;8817;48.170;8.592;2022-11-21T08:15:16;9.30;55.20
17399;DHT22;8817;48.170;8.592;2022-11-21T08:17:43;9.40;55.30
17399;DHT22;8817;48.170;8.592;2022-11-21T08:20:10;9.40;55.30
17399;DHT22;8817;48.170;8.592;2022-11-21T08:22:39;9.40;55.20
17399;DHT22;8817;48.170;8.592;2022-11-21T08:25:07;9.40;55.20
17399;DHT22;8817;48.170;8.592;2022-11-21T08:27:35;9.40;55.20
17399;DHT22;8817;48.170;8.592;2022-11-21T08:30:04;9.50;55.30
17399;DHT22;8817;48.170;8.592;2022-11-21T08:32:31;9.50;55.30
17399;DHT22;8817;48.170;8.592;2022-11-21T08:34:58;9.60;55.40
17399;DHT22;8817;48.170;8.592;2022-11-21T08:37:26;9.60;55.50
17399;DHT22;8817;48.170;8.592;2022-11-21T08:39:55;9.60;55.50
17399;DHT22;8817;48.170;8.592;2022-11-21T08:42:23;9.70;55.50
17399;DHT22;8817;48.170;8.592;2022-11-21T08:44:50;9.70;55.40
17399;DHT22;8817;48.170;8.592;2022-11-21T08:47:17;9.70;55.30
17399;DHT22;8817;48.170;8.592;2022-11-21T08:49:45;9.70;55.30
17399;DHT22;8817;48.170;8.592;2022-11-21T08:52:12;9.80;55.30
17399;DHT22;8817;48.170;8.592;2022-11-21T08:54:39;9.80;55.30
17399;DHT22;8817;48.170;8.592;2022-11-21T08:57:07;9.80;55.30
17399;DHT22;8817;48.170;8.592;2022-11-21T08:59:34;9.80;55.30
17399;DHT22;8817;48.170;8.592;2022-11-21T09:02:01;9.80;55.30
17399;DHT22;8817;48.170;8.592;2022-11-21T09:04:28;9.90;55.40
17399;DHT22;8817;48.170;8.592;2022-11-21T09:06:55;9.90;55.40
17399;DHT22;8817;48.170;8.592;2022-11-21T09:09:21;9.90;55.40
17399;DHT22;8817;48.170;8.592;2022-11-21T09:11:48;10.00;55.40
17399;DHT22;8817;48.170;8.592;2022-11-21T09:14:17;10.00;55.50
17399;DHT22;8817;48.170;8.592;2022-11-21T09:17:01;10.00;55.50
17399;DHT22;8817;48.170;8.592;2022-11-21T09:19:45;10.10;55.50
17399;DHT22;8817;48.170;8.592;2022-11-21T09:22:12;10.10;55.50
17399;DHT22;8817;48.170;8.592;2022-11-21T09:24:39;10.10;55.60
17399;DHT22;8817;48.170;8.592;2022-11-21T09:27:06;10.20;55.80
17399;DHT22;8817;48.170;8.592;2022-11-21T09:29:34;10.20;55.80
17399;DHT22;8817;48.170;8.592;2022-11-21T09:32:01;10.20;55.80
17399;DHT22;8817;48.170;8.592;2022-11-21T09:34:28;10.30;55.80
17399;DHT22;8817;48.170;8.592;2022-11-21T09:36:56;10.30;55.80
17399;DHT22;8817;48.170;8.592;2022-11-21T09:39:23;10.40;55.90
17399;DHT22;8817;48.170;8.592;2022-11-21T09:41:58;10.40;55.70
17399;DHT22;8817;48.170;8.592;2022-11-21T09:44:40;10.50;55.70
17399;DHT22;8817;48.170;8.592;2022-11-21T09:47:21;10.50;55.70
17399;DHT22;8817;48.170;8.592;2022-11-21T09:49:54;10.60;55.70
17399;DHT22;8817;48.170;8.592;2022-11-21T09:52:25;10.50;55.60
17399;DHT22;8817;48.170;8.592;2022-11-21T09:54:57;10.60;55.60
17399;DHT22;8817;48.170;8.592;2022-11-21T09:57:25;10.60;55.60
17399;DHT22;8817;48.170;8.592;2022-11-21T09:59:53;10.60;55.60
17399;DHT22;8817;48.170;8.592;2022-11-21T10:02:22;10.60;55.60
17399;DHT22;8817;48.170;8.592;2022-11-21T10:04:50;10.70;55.80
17399;DHT22;8817;48.170;8.592;2022-11-21T10:07:21;10.70;56.00
17399;DHT22;8817;48.170;8.592;2022-11-21T10:10:06;10.80;56.10
17399;DHT22;8817;48.170;8.592;2022-11-21T10:12:39;10.80;56.10
17399;DHT22;8817;48.170;8.592;2022-11-21T10:15:26;11.00;56.10
17399;DHT22;8817;48.170;8.592;2022-11-21T10:18:21;11.00;56.00
17399;DHT22;8817;48.170;8.592;2022-11-21T10:20:57;11.10;56.00
17399;DHT22;8817;48.170;8.592;2022-11-21T10:23:48;11.10;55.90
17399;DHT22;8817;48.170;8.592;2022-11-21T10:26:22;11.10;55.80
17399;DHT22;8817;48.170;8.592;2022-11-21T10:28:57;11.20;55.80
17399;DHT22;8817;48.170;8.592;2022-11-21T10:31:28;11.20;55.80
17399;DHT22;8817;48.170;8.592;2022-11-21T10:33:57;11.20;55.80
17399;DHT22;8817;48.170;8.592;2022-11-21T10:36:28;11.20;55.70
17399;DHT22;8817;48.170;8.592;2022-11-21T10:38:58;11.20;55.80
17399;DHT22;8817;48.170;8.592;2022-11-21T10:41:38;11.20;55.60
17399;DHT22;8817;48.170;8.592;2022-11-21T10:44:13;11.20;55.60
17399;DHT22;8817;48.170;8.592;2022-11-21T10:47:12;11.20;55.60
17399;DHT22;8817;48.170;8.592;2022-11-21T10:49:39;11.20;55.60
17399;DHT22;8817;48.170;8.592;2022-11-21T10:52:12;11.20;55.50
17399;DHT22;8817;48.170;8.592;2022-11-21T10:55:03;11.20;55.60
17399;DHT22;8817;48.170;8.592;2022-11-21T10:57:35;11.20;55.70
17399;DHT22;8817;48.170;8.592;2022-11-21T11:00:17;11.20;55.80
17399;DHT22;8817;48.170;8.592;2022-11-21T11:03:14;11.20;55.90
17399;DHT22;8817;48.170;8.592;2022-11-21T11:05:53;11.30;56.00
17399;DHT22;8817;48.170;8.592;2022-11-21T11:08:21;11.30;56.00
17399;DHT22;8817;48.170;8.592;2022-11-21T11:11:02;11.40;56.60
17399;DHT22;8817;48.170;8.592;2022-11-21T11:13:30;11.40;56.00
17399;DHT22;8817;48.170;8.592;2022-11-21T11:16:09;11.50;55.90
17399;DHT22;8817;48.170;8.592;2022-11-21T11:18:46;11.50;55.90
17399;DHT22;8817;48.170;8.592;2022-11-21T11:21:17;11.60;56.30
17399;DHT22;8817;48.170;8.592;2022-11-21T11:23:46;11.60;55.60
17399;DHT22;8817;48.170;8.592;2022-11-21T11:26:25;11.60;55.60
17399;DHT22;8817;48.170;8.592;2022-11-21T11:28:53;11.60;55.70
17399;DHT22;8817;48.170;8.592;2022-11-21T11:31:24;11.60;55.70
17399;DHT22;8817;48.170;8.592;2022-11-21T11:33:54;11.60;55.70
17399;DHT22;8817;48.170;8.592;2022-11-21T11:36:35;11.60;55.80
17399;DHT22;8817;48.170;8.592;2022-11-21T11:39:15;11.60;55.90
17399;DHT22;8817;48.170;8.592;2022-11-21T11:45:02;11.80;56.00
17399;DHT22;8817;48.170;8.592;2022-11-21T11:47:52;11.80;55.90
17399;DHT22;8817;48.170;8.592;2022-11-21T11:50:25;11.90;56.00
17399;DHT22;8817;48.170;8.592;2022-11-21T11:53:01;11.90;56.00
17399;DHT22;8817;48.170;8.592;2022-11-21T11:55:34;12.00;56.70
17399;DHT22;8817;48.170;8.592;2022-11-21T11:58:06;12.00;56.20
17399;DHT22;8817;48.170;8.592;2022-11-21T12:00:40;12.10;56.30
17399;DHT22;8817;48.170;8.592;2022-11-21T12:03:13;12.20;56.20
17399;DHT22;8817;48.170;8.592;2022-11-21T12:05:52;12.30;56.20
17399;DHT22;8817;48.170;8.592;2022-11-21T12:08:25;12.30;56.10
17399;DHT22;8817;48.170;8.592;2022-11-21T12:10:58;12.40;56.00
17399;DHT22;8817;48.170;8.592;2022-11-21T12:13:45;12.50;55.90
17399;DHT22;8817;48.170;8.592;2022-11-21T12:16:13;12.50;55.90
17399;DHT22;8817;48.170;8.592;2022-11-21T12:18:47;12.60;55.90
17399;DHT22;8817;48.170;8.592;2022-11-21T12:21:18;12.60;55.80
17399;DHT22;8817;48.170;8.592;2022-11-21T12:23:47;12.60;55.70
17399;DHT22;8817;48.170;8.592;2022-11-21T12:26:35;12.60;55.60
17399;DHT22;8817;48.170;8.592;2022-11-21T12:29:23;12.60;55.70
17399;DHT22;8817;48.170;8.592;2022-11-21T12:32:08;12.70;55.90
17399;DHT22;8817;48.170;8.592;2022-11-21T12:34:55;12.70;56.00
17399;DHT22;8817;48.170;8.592;2022-11-21T12:37:35;12.80;56.20
17399;DHT22;8817;48.170;8.592;2022-11-21T12:40:18;12.90;56.20
17399;DHT22;8817;48.170;8.592;2022-11-21T12:42:59;13.00;56.30
17399;DHT22;8817;48.170;8.592;2022-11-21T12:45:33;13.10;56.20
17399;DHT22;8817;48.170;8.592;2022-11-21T12:48:14;13.20;56.00
17399;DHT22;8817;48.170;8.592;2022-11-21T12:51:30;13.20;55.90
17399;DHT22;8817;48.170;8.592;2022-11-21T12:54:30;13.20;55.70
17399;DHT22;8817;48.170;8.592;2022-11-21T12:57:08;13.20;55.60
17399;DHT22;8817;48.170;8.592;2022-11-21T12:59:55;13.20;55.50
17399;DHT22;8817;48.170;8.592;2022-11-21T13:02:33;13.20;55.50
17399;DHT22;8817;48.170;8.592;2022-11-21T13:05:09;13.20;55.60
17399;DHT22;8817;48.170;8.592;2022-11-21T13:07:37;13.20;55.50
17399;DHT22;8817;48.170;8.592;2022-11-21T13:10:11;13.20;55.60
17399;DHT22;8817;48.170;8.592;2022-11-21T13:12:43;13.20;55.50
17399;DHT22;8817;48.170;8.592;2022-11-21T13:15:19;13.10;55.50
17399;DHT22;8817;48.170;8.592;2022-11-21T13:17:51;13.20;55.60
17399;DHT22;8817;48.170;8.592;2022-11-21T13:20:31;13.20;55.70
17399;DHT22;8817;48.170;8.592;2022-11-21T13:23:00;13.20;55.80
17399;DHT22;8817;48.170;8.592;2022-11-21T13:25:40;13.30;56.00
17399;DHT22;8817;48.170;8.592;2022-11-21T13:28:33;13.30;55.90
17399;DHT22;8817;48.170;8.592;2022-11-21T13:31:03;13.40;56.00
17399;DHT22;8817;48.170;8.592;2022-11-21T13:33:49;13.40;55.90
17399;DHT22;8817;48.170;8.592;2022-11-21T13:36:35;13.50;55.80
17399;DHT22;8817;48.170;8.592;2022-11-21T13:39:34;13.50;55.60
17399;DHT22;8817;48.170;8.592;2022-11-21T13:42:07;13.50;55.40
17399;DHT22;8817;48.170;8.592;2022-11-21T13:44:52;13.50;55.30
17399;DHT22;8817;48.170;8.592;2022-11-21T13:50:59;13.40;55.10
17399;DHT22;8817;48.170;8.592;2022-11-21T13:53:42;13.30;55.10
17399;DHT22;8817;48.170;8.592;2022-11-21T13:56:25;13.40;55.10
17399;DHT22;8817;48.170;8.592;2022-11-21T13:59:05;13.30;55.00
17399;DHT22;8817;48.170;8.592;2022-11-21T14:01:52;13.30;55.00
17399;DHT22;8817;48.170;8.592;2022-11-21T14:04:52;13.20;55.00
17399;DHT22;8817;48.170;8.592;2022-11-21T14:07:25;13.20;55.00
17399;DHT22;8817;48.170;8.592;2022-11-21T14:09:53;13.20;55.00
17399;DHT22;8817;48.170;8.592;2022-11-21T14:12:24;13.20;55.00
17399;DHT22;8817;48.170;8.592;2022-11-21T14:15:13;13.10;55.00
17399;DHT22;8817;48.170;8.592;2022-11-21T14:17:44;13.10;54.90
17399;DHT22;8817;48.170;8.592;2022-11-21T14:20:16;13.10;54.90
17399;DHT22;8817;48.170;8.592;2022-11-21T14:22:52;13.00;54.80
17399;DHT22;8817;48.170;8.592;2022-11-21T14:25:22;13.00;54.80
17399;DHT22;8817;48.170;8.592;2022-11-21T14:27:51;13.00;54.80
17399;DHT22;8817;48.170;8.592;2022-11-21T14:30:33;13.00;54.80
17399;DHT22;8817;48.170;8.592;2022-11-21T14:33:19;12.90;54.80
17399;DHT22;8817;48.170;8.592;2022-11-21T14:35:47;12.90;54.80
17399;DHT22;8817;48.170;8.592;2022-11-21T14:38:15;12.80;54.70
17399;DHT22;8817;48.170;8.592;2022-11-21T14:40:41;12.80;54.70
17399;DHT22;8817;48.170;8.592;2022-11-21T14:43:26;12.80;54.70
17399;DHT22;8817;48.170;8.592;2022-11-21T14:45:55;12.70;54.60
17399;DHT22;8817;48.170;8.592;2022-11-21T14:48:25;12.70;54.50
17399;DHT22;8817;48.170;8.592;2022-11-21T14:50:52;12.70;54.50
17399;DHT22;8817;48.170;8.592;2022-11-21T14:53:20;12.60;54.50
17399;DHT22;8817;48.170;8.592;2022-11-21T14:55:49;12.60;54.50
17399;DHT22;8817;48.170;8.592;2022-11-21T14:58:17;12.50;54.50
17399;DHT22;8817;48.170;8.592;2022-11-21T15:01:01;12.50;54.50
17399;DHT22;8817;48.170;8.592;2022-11-21T15:03:28;12.40;54.50
17399;DHT22;8817;48.170;8.592;2022-11-21T15:05:59;12.40;54.40
17399;DHT22;8817;48.170;8.592;2022-11-21T15:08:26;12.30;54.40
17399;DHT22;8817;48.170;8.592;2022-11-21T15:10:54;12.30;54.40
17399;DHT22;8817;48.170;8.592;2022-11-21T15:13:23;12.30;54.50
17399;DHT22;8817;48.170;8.592;2022-11-21T15:15:53;12.20;54.40
17399;DHT22;8817;48.170;8.592;2022-11-21T15:18:23;12.20;54.40
17399;DHT22;8817;48.170;8.592;2022-11-21T15:20:52;12.20;54.50
17399;DHT22;8817;48.170;8.592;2022-11-21T15:23:28;12.10;54.40
17399;DHT22;8817;48.170;8.592;2022-11-21T15:25:55;12.10;54.40
17399;DHT22;8817;48.170;8.592;2022-11-21T15:28:23;12.10;55.00
17399;DHT22;8817;48.170;8.592;2022-11-21T15:31:15;12.00;54.30
17399;DHT22;8817;48.170;8.592;2022-11-21T15:34:00;12.00;54.30
17399;DHT22;8817;48.170;8.592;2022-11-21T15:36:28;11.90;54.30
17399;DHT22;8817;48.170;8.592;2022-11-21T15:38:59;11.90;54.20
17399;DHT22;8817;48.170;8.592;2022-11-21T15:41:29;11.90;54.20
17399;DHT22;8817;48.170;8.592;2022-11-21T15:44:18;11.80;54.20
17399;DHT22;8817;48.170;8.592;2022-11-21T15:46:49;11.70;54.20
17399;DHT22;8817;48.170;8.592;2022-11-21T15:49:17;11.70;54.20
17399;DHT22;8817;48.170;8.592;2022-11-21T15:51:45;11.70;54.20
17399;DHT22;8817;48.170;8.592;2022-11-21T15:54:14;11.60;54.20
17399;DHT22;8817;48.170;8.592;2022-11-21T15:56:41;11.60;54.20
17399;DHT22;8817;48.170;8.592;2022-11-21T15:59:08;11.60;54.20
17399;DHT22;8817;48.170;8.592;2022-11-21T16:01:35;11.50;54.20
17399;DHT22;8817;48.170;8.592;2022-11-21T16:04:04;11.40;54.10
17399;DHT22;8817;48.170;8.592;2022-11-21T16:06:33;11.40;54.10
17399;DHT22;8817;48.170;8.592;2022-11-21T16:09:03;11.40;54.10
17399;DHT22;8817;48.170;8.592;2022-11-21T16:11:32;11.30;54.20
17399;DHT22;8817;48.170;8.592;2022-11-21T16:14:00;11.30;54.30
17399;DHT22;8817;48.170;8.592;2022-11-21T16:16:29;11.30;54.40
17399;DHT22;8817;48.170;8.592;2022-11-21T16:18:57;11.30;54.40
17399;DHT22;8817;48.170;8.592;2022-11-21T16:21:24;11.20;54.40
17399;DHT22;8817;48.170;8.592;2022-11-21T16:23:54;11.20;54.30
17399;DHT22;8817;48.170;8.592;2022-11-21T16:26:21;11.20;54.30